Time;durP1;ratioP1;P1;durP2;ratioP2;P2;SDS_P1;SDS_P2;PMS_P1;PMS_P2;Temp;Humidity;BMP_temperature;BMP_pressure;BME280_temperature;BME280_humidity;BME280_pressure;Samples;Min_cycle;Max_cycle;Signal;HPM_P1;HPM_P2
2021/05/18 00:01:35;;;;;;;11.52;1.88;;;10.40;99.90;;;;;;5029760;28;20041;-68
2021/05/18 00:04:40;;;;;;;18.02;4.80;;;10.30;99.90;;;;;;5029707;28;20048;-68
2021/05/18 00:07:55;;;;;;;9.23;2.33;;;10.30;99.90;;;;;;5029697;28;20044;-68
2021/05/18 00:14:27;;;;;;;12.73;1.92;;;10.30;99.90;;;;;;5030397;28;20048;-69
2021/05/18 00:17:32;;;;;;;12.32;2.03;;;10.30;99.90;;;;;;5029888;28;20061;-68
2021/05/18 00:20:36;;;;;;;15.65;2.58;;;10.20;99.90;;;;;;5030033;28;20044;-69
2021/05/18 00:23:41;;;;;;;29.38;3.13;;;10.20;99.90;;;;;;5028734;28;20056;-68
2021/05/18 00:26:45;;;;;;;11.23;1.80;;;10.20;99.90;;;;;;5030042;28;20053;-69
2021/05/18 00:29:49;;;;;;;14.63;2.28;;;10.20;99.90;;;;;;5033866;28;20049;-68
2021/05/18 00:32:53;;;;;;;14.95;2.22;;;10.20;99.90;;;;;;5019655;28;20060;-68
2021/05/18 00:35:58;;;;;;;9.15;1.58;;;10.20;99.90;;;;;;5013163;28;20403;-69
2021/05/18 00:39:04;;;;;;;9.40;2.13;;;10.10;99.90;;;;;;5012750;28;20057;-68
2021/05/18 00:42:16;;;;;;;10.10;2.25;;;10.10;99.90;;;;;;5013384;28;20388;-69
2021/05/18 00:45:48;;;;;;;18.88;2.28;;;10.10;99.90;;;;;;5014035;28;20056;-69
2021/05/18 00:48:59;;;;;;;9.65;1.95;;;10.10;99.90;;;;;;5012353;28;20068;-68
2021/05/18 00:52:13;;;;;;;12.15;1.90;;;10.10;99.90;;;;;;5013525;28;20381;-68
2021/05/18 00:55:22;;;;;;;21.08;4.45;;;10.10;99.90;;;;;;5012265;28;20041;-68
2021/05/18 00:58:38;;;;;;;20.33;2.60;;;10.20;99.90;;;;;;5013356;28;20036;-69
2021/05/18 01:01:43;;;;;;;11.90;2.63;;;10.10;99.90;;;;;;5013285;28;20041;-68
2021/05/18 01:04:48;;;;;;;19.60;3.55;;;10.10;99.90;;;;;;5000883;28;20036;-68
2021/05/18 01:07:53;;;;;;;18.23;2.85;;;10.10;99.90;;;;;;5013118;28;20062;-68
2021/05/18 01:10:57;;;;;;;23.58;4.93;;;10.10;99.90;;;;;;5023391;28;20388;-68
2021/05/18 01:14:07;;;;;;;14.38;2.67;;;10.10;99.90;;;;;;5020611;28;20052;-68
2021/05/18 01:17:11;;;;;;;17.75;4.40;;;10.00;99.90;;;;;;5031982;28;20044;-69
2021/05/18 01:20:17;;;;;;;16.90;2.67;;;9.90;99.90;;;;;;5032407;28;20033;-68
2021/05/18 01:23:21;;;;;;;13.25;3.03;;;9.90;99.90;;;;;;5032289;28;20637;-69
2021/05/18 01:26:29;;;;;;;15.25;2.85;;;10.00;99.90;;;;;;5020585;28;20055;-68
2021/05/18 01:29:34;;;;;;;18.35;3.00;;;10.00;99.90;;;;;;5020780;28;20048;-67
2021/05/18 01:32:40;;;;;;;11.15;2.38;;;10.10;99.90;;;;;;5023026;28;20045;-68
2021/05/18 01:35:45;;;;;;;12.88;2.30;;;10.10;99.90;;;;;;5013211;28;20049;-68
2021/05/18 01:38:59;;;;;;;12.02;1.80;;;10.20;99.90;;;;;;5010977;28;20064;-68
2021/05/18 01:45:31;;;;;;;;;;;10.30;99.90;;;;;;5013465;28;20052;-68
2021/05/18 01:48:37;;;;;;;10.23;2.00;;;10.30;99.90;;;;;;5020279;28;19936;-68
2021/05/18 01:51:45;;;;;;;7.55;1.88;;;10.50;99.90;;;;;;5031602;28;20519;-68
2021/05/18 01:54:51;;;;;;;19.08;2.85;;;10.60;99.90;;;;;;5031355;28;20040;-68
2021/05/18 01:57:55;;;;;;;20.67;2.92;;;10.50;99.90;;;;;;5032296;28;20420;-68
2021/05/18 02:01:01;;;;;;;13.30;2.50;;;10.50;99.90;;;;;;5019965;28;20049;-68
2021/05/18 02:04:06;;;;;;;10.80;2.30;;;10.60;99.90;;;;;;5031040;28;20044;-68
2021/05/18 02:07:19;;;;;;;17.20;3.60;;;10.70;99.90;;;;;;5020110;28;20057;-68
2021/05/18 02:10:25;;;;;;;16.33;3.60;;;10.90;99.90;;;;;;5030340;28;20048;-68
2021/05/18 02:13:49;;;;;;;15.45;3.35;;;11.00;99.90;;;;;;5019807;28;20049;-68
2021/05/18 02:17:18;;;;;;;19.85;3.75;;;11.10;99.90;;;;;;5019924;28;20511;-68
2021/05/18 02:20:31;;;;;;;23.23;4.78;;;11.20;99.90;;;;;;5031411;28;20480;-67
2021/05/18 02:27:17;;;;;;;25.77;6.70;;;11.60;99.90;;;;;;5030795;28;20499;-68
2021/05/18 02:30:23;;;;;;;20.50;3.10;;;11.70;99.90;;;;;;5018659;28;20056;-68
2021/05/18 02:33:27;;;;;;;18.75;3.88;;;11.90;99.90;;;;;;5009259;28;20048;-69
2021/05/18 02:36:32;;;;;;;18.13;3.38;;;11.90;99.90;;;;;;5010706;28;20397;-67
2021/05/18 02:39:37;;;;;;;15.82;3.33;;;11.30;99.90;;;;;;5009971;28;20396;-68
2021/05/18 02:42:43;;;;;;;20.20;3.92;;;11.20;99.90;;;;;;5010276;28;20499;-68
2021/05/18 02:49:11;;;;;;;23.15;3.70;;;11.30;99.90;;;;;;5010428;28;20061;-68
2021/05/18 02:52:19;;;;;;;18.55;3.17;;;11.30;99.90;;;;;;5009814;28;20045;-68
2021/05/18 02:55:37;;;;;;;20.15;4.13;;;11.30;99.90;;;;;;4998794;28;20041;-69
2021/05/18 02:58:42;;;;;;;26.35;3.47;;;11.30;99.90;;;;;;5010830;28;20053;-69
2021/05/18 03:01:57;;;;;;;21.00;3.45;;;11.40;99.90;;;;;;5010878;28;20048;-69
2021/05/18 03:05:03;;;;;;;17.33;3.00;;;11.00;99.90;;;;;;5011101;28;20045;-69
2021/05/18 03:08:08;;;;;;;19.77;4.93;;;10.70;99.90;;;;;;4998340;28;20401;-68
2021/05/18 03:11:12;;;;;;;18.13;3.42;;;10.60;99.90;;;;;;5023258;28;20052;-67
2021/05/18 03:14:17;;;;;;;26.85;5.07;;;10.70;99.90;;;;;;5030607;28;20044;-69
2021/05/18 03:17:22;;;;;;;20.77;3.22;;;10.90;99.90;;;;;;5030651;28;20040;-66
2021/05/18 03:20:27;;;;;;;18.85;3.33;;;11.10;99.90;;;;;;5029765;28;20522;-68
2021/05/18 03:23:31;;;;;;;24.30;4.40;;;11.00;99.90;;;;;;5029530;28;20056;-69
2021/05/18 03:26:42;;;;;;;30.77;4.47;;;10.90;99.90;;;;;;5030654;28;20052;-68
2021/05/18 03:29:50;;;;;;;17.02;4.90;;;10.70;99.90;;;;;;5030070;28;20053;-68
2021/05/18 03:36:17;;;;;;;19.75;4.53;;;10.40;99.90;;;;;;5030507;28;20044;-68
2021/05/18 03:39:23;;;;;;;15.35;4.03;;;10.30;99.90;;;;;;5029518;28;20041;-68
2021/05/18 03:42:39;;;;;;;30.90;6.10;;;10.30;99.90;;;;;;5030307;28;20052;-68
2021/05/18 03:45:50;;;;;;;20.45;4.30;;;10.20;99.90;;;;;;5030104;28;20048;-68
2021/05/18 03:52:22;;;;;;;25.10;4.35;;;10.10;99.90;;;;;;5030084;28;20057;-68
2021/05/18 04:02:40;;;;;;;;;;;10.00;99.90;;;;;;5030086;28;20052;-68
2021/05/18 04:19:06;;;;;;;17.88;3.80;;;9.70;99.90;;;;;;4968046;28;20046;-68
2021/05/18 04:22:25;;;;;;;28.00;4.75;;;9.80;99.90;;;;;;5021324;28;20033;-68
2021/05/18 04:49:06;;;;;;;23.63;4.40;;;10.50;99.90;;;;;;5024340;28;20053;-68
2021/05/18 04:52:25;;;;;;;22.05;3.45;;;10.70;99.90;;;;;;5028840;28;20060;-68
2021/05/18 05:08:43;;;;;;;23.17;3.55;;;11.40;99.90;;;;;;5016836;28;20049;-68
2021/05/18 05:15:11;;;;;;;24.20;3.78;;;11.40;99.90;;;;;;5010024;28;20314;-68
2021/05/18 05:18:15;;;;;;;19.88;3.65;;;11.60;99.90;;;;;;5013035;28;20037;-68
2021/05/18 05:21:22;;;;;;;21.27;3.63;;;11.90;99.90;;;;;;5016132;28;20045;-68
2021/05/18 05:24:27;;;;;;;23.42;3.65;;;12.30;99.90;;;;;;5032025;28;20503;-68
2021/05/18 05:27:32;;;;;;;15.25;2.95;;;13.50;99.90;;;;;;5032756;28;20040;-68
2021/05/18 05:30:36;;;;;;;22.23;4.22;;;13.90;99.90;;;;;;5012461;28;20106;-69
2021/05/18 05:33:41;;;;;;;16.98;2.92;;;15.50;99.90;;;;;;5011682;28;20057;-68
2021/05/18 05:36:47;;;;;;;16.17;3.22;;;15.50;99.90;;;;;;5011910;28;20045;-69
2021/05/18 05:39:52;;;;;;;14.80;2.80;;;14.90;99.90;;;;;;5011395;28;20084;-68
2021/05/18 05:42:58;;;;;;;19.15;3.22;;;14.70;99.90;;;;;;5012928;28;20460;-68
2021/05/18 05:46:03;;;;;;;14.38;3.10;;;15.30;99.90;;;;;;5013289;28;20057;-67
2021/05/18 05:49:07;;;;;;;20.95;3.40;;;14.30;99.90;;;;;;5020056;28;20045;-68
2021/05/18 05:52:17;;;;;;;15.75;4.15;;;13.00;99.90;;;;;;5011764;28;20041;-67
2021/05/18 05:55:22;;;;;;;18.27;3.70;;;12.30;99.90;;;;;;5012374;28;20041;-68
2021/05/18 05:58:28;;;;;;;17.48;3.45;;;12.60;99.90;;;;;;5011920;28;20045;-68
2021/05/18 06:01:33;;;;;;;18.65;4.07;;;14.10;99.90;;;;;;5011948;28;20056;-68
2021/05/18 06:04:37;;;;;;;13.60;3.38;;;15.00;99.90;;;;;;5018420;28;20484;-68
2021/05/18 06:07:42;;;;;;;19.88;3.88;;;16.60;99.90;;;;;;5000075;28;20037;-68
2021/05/18 06:10:50;;;;;;;15.73;4.43;;;16.70;99.90;;;;;;5011610;28;20045;-68
2021/05/18 06:37:21;;;;;;;;;;;16.10;99.90;;;;;;5017499;28;20416;-68
2021/05/18 06:45:41;;;;;;;19.20;5.28;;;16.70;99.90;;;;;;5021466;28;20040;-69
2021/05/18 06:50:35;;;;;;;22.30;5.95;;;16.40;99.90;;;;;;5015848;28;20061;-68
2021/05/18 06:53:39;;;;;;;21.73;6.43;;;17.00;99.90;;;;;;5018686;28;20064;-68
2021/05/18 06:56:45;;;;;;;19.73;5.47;;;17.10;99.90;;;;;;5021407;28;20503;-69
2021/05/18 07:00:12;;;;;;;29.08;6.53;;;17.30;99.90;;;;;;5018931;28;20032;-68
2021/05/18 07:03:21;;;;;;;24.60;5.95;;;17.10;99.90;;;;;;5029519;28;20049;-69
2021/05/18 07:06:51;;;;;;;13.50;3.97;;;17.50;99.90;;;;;;5030679;28;20043;-68
2021/05/18 07:09:50;;;;;;;16.15;3.92;;;16.70;99.90;;;;;;5011673;28;20049;-68
2021/05/18 07:12:55;;;;;;;24.45;4.63;;;17.10;99.90;;;;;;5030696;28;20045;-68
2021/05/18 07:15:59;;;;;;;18.73;3.63;;;17.60;99.90;;;;;;5031007;28;20487;-68
2021/05/18 07:19:04;;;;;;;20.20;3.40;;;18.20;99.90;;;;;;5030500;28;20045;-68
2021/05/18 07:22:08;;;;;;;22.52;5.05;;;19.00;99.90;;;;;;5020042;28;20037;-68
2021/05/18 07:25:12;;;;;;;19.20;5.40;;;19.90;99.90;;;;;;5018014;28;20045;-69
2021/05/18 07:28:17;;;;;;;18.92;5.68;;;22.00;99.90;;;;;;5010560;28;20396;-69
2021/05/18 07:31:21;;;;;;;18.08;4.72;;;23.50;99.90;;;;;;5010484;28;20048;-68
2021/05/18 07:34:25;;;;;;;19.88;4.85;;;25.10;99.90;;;;;;5011809;28;20069;-68
2021/05/18 07:37:30;;;;;;;16.60;5.15;;;26.60;99.30;;;;;;5012559;28;20028;-68
2021/05/18 07:40:35;;;;;;;21.05;6.15;;;27.80;96.70;;;;;;5010680;28;20061;-68
2021/05/18 07:43:40;;;;;;;19.48;4.97;;;28.30;95.50;;;;;;5010540;28;20045;-68
2021/05/18 07:46:46;;;;;;;16.33;4.78;;;28.30;94.60;;;;;;5010467;28;20049;-68
2021/05/18 07:49:53;;;;;;;21.15;5.65;;;28.10;94.60;;;;;;5029203;28;20452;-68
2021/05/18 07:59:50;;;;;;;10.52;3.35;;;28.70;93.50;;;;;;5016382;28;20052;-68
2021/05/18 08:06:17;;;;;;;9.95;3.20;;;29.50;92.20;;;;;;5023122;28;20503;-68
2021/05/18 08:09:23;;;;;;;16.77;4.15;;;28.70;92.60;;;;;;5010563;28;20511;-68
2021/05/18 08:12:27;;;;;;;15.85;3.35;;;29.30;91.60;;;;;;5010742;28;20053;-69
2021/05/18 08:15:38;;;;;;;14.93;3.38;;;30.60;90.00;;;;;;5018973;28;20140;-68
2021/05/18 09:35:05;;;;;;;11.68;2.50;;;34.50;73.30;;;;;;5011589;28;20056;-68
2021/05/18 10:35:34;;;;;;;11.27;2.50;;;32.70;69.70;;;;;;5029065;28;20044;-68
2021/05/18 10:38:48;;;;;;;7.47;2.20;;;29.30;72.10;;;;;;5013528;28;20049;-69
2021/05/18 10:41:55;;;;;;;13.10;2.17;;;31.10;73.10;;;;;;5019649;28;20036;-69
2021/05/18 10:44:59;;;;;;;7.45;2.50;;;33.30;71.90;;;;;;5031001;28;20052;-68
2021/05/18 10:48:03;;;;;;;10.43;2.38;;;36.00;69.40;;;;;;5030830;28;20056;-69
2021/05/18 10:51:19;;;;;;;9.18;2.08;;;37.80;67.60;;;;;;5016205;28;20424;-69
2021/05/18 10:54:26;;;;;;;8.40;2.47;;;39.00;65.50;;;;;;5011724;28;20032;-68
2021/05/18 10:57:31;;;;;;;11.07;2.33;;;38.50;64.40;;;;;;5012421;28;20623;-69
2021/05/18 11:00:37;;;;;;;9.55;2.15;;;37.70;64.10;;;;;;5029921;28;20480;-67
2021/05/18 11:03:41;;;;;;;9.02;1.85;;;37.40;63.70;;;;;;5011666;28;20065;-69
2021/05/18 11:06:57;;;;;;;10.43;2.58;;;35.70;64.40;;;;;;5014177;28;20610;-68
2021/05/18 11:10:22;;;;;;;11.38;2.05;;;31.40;67.30;;;;;;5019375;28;20049;-68
2021/05/18 11:13:28;;;;;;;8.65;2.80;;;32.10;71.00;;;;;;5020681;28;20041;-69
2021/05/18 11:16:32;;;;;;;9.07;2.10;;;34.10;71.00;;;;;;5021790;28;20045;-66
2021/05/18 11:20:00;;;;;;;13.50;2.65;;;36.50;69.00;;;;;;5019122;28;20048;-67
2021/05/18 11:26:24;;;;;;;7.95;2.30;;;35.50;65.30;;;;;;5022804;28;20492;-68
2021/05/18 11:29:43;;;;;;;10.25;2.20;;;33.50;66.50;;;;;;5021305;28;20048;-69
2021/05/18 11:32:54;;;;;;;7.70;2.10;;;32.10;67.50;;;;;;5012030;28;20049;-68
2021/05/18 11:36:21;;;;;;;5.65;2.25;;;33.70;66.60;;;;;;5011078;28;20045;-70
2021/05/18 11:39:28;;;;;;;9.90;2.22;;;33.80;66.90;;;;;;5021324;28;20053;-69
2021/05/18 11:42:34;;;;;;;8.60;2.05;;;33.20;67.00;;;;;;5027311;28;20049;-69
2021/05/18 11:45:40;;;;;;;11.02;2.65;;;33.10;67.70;;;;;;5011271;28;20048;-69
2021/05/18 11:49:00;;;;;;;11.73;2.40;;;32.70;68.80;;;;;;5001265;28;20064;-69
2021/05/18 11:52:06;;;;;;;6.68;2.00;;;33.30;69.40;;;;;;5019202;28;20048;-69
2021/05/18 11:55:17;;;;;;;7.22;2.00;;;35.10;66.70;;;;;;5020668;28;20041;-69
2021/05/18 11:58:22;;;;;;;8.80;2.20;;;35.70;66.30;;;;;;5012071;28;20097;-70
2021/05/18 12:01:26;;;;;;;9.77;2.40;;;35.70;62.20;;;;;;5025841;28;20040;-69
2021/05/18 12:04:40;;;;;;;11.27;2.20;;;34.30;66.70;;;;;;5025572;28;20475;-69
2021/05/18 12:07:45;;;;;;;8.90;2.15;;;29.80;69.60;;;;;;5018890;28;20044;-71
2021/05/18 12:10:49;;;;;;;12.25;2.38;;;29.30;70.60;;;;;;5026253;28;20535;-69
2021/05/18 12:13:57;;;;;;;5.55;1.88;;;28.30;69.90;;;;;;5024574;28;20503;-69
2021/05/18 12:17:02;;;;;;;9.73;2.13;;;28.50;71.40;;;;;;5027168;28;20048;-69
2021/05/18 12:20:15;;;;;;;7.47;2.17;;;28.90;72.30;;;;;;5012430;28;20113;-71
2021/05/18 12:23:19;;;;;;;8.13;2.20;;;30.20;72.80;;;;;;5019684;28;20048;-68
2021/05/18 12:26:23;;;;;;;6.55;1.60;;;29.20;68.30;;;;;;5024634;28;20045;-69
2021/05/18 12:29:37;;;;;;;8.90;1.93;;;30.70;69.90;;;;;;5024617;28;20040;-70
2021/05/18 12:32:48;;;;;;;7.10;1.67;;;29.20;69.40;;;;;;5028603;28;20043;-70
2021/05/18 12:36:05;;;;;;;12.30;2.92;;;29.30;68.60;;;;;;5023238;28;20566;-69
2021/05/18 12:39:15;;;;;;;7.32;2.03;;;29.50;71.50;;;;;;5020563;28;20056;-68
2021/05/18 12:42:26;;;;;;;10.68;1.90;;;29.20;72.90;;;;;;5017377;28;20436;-69
2021/05/18 12:45:30;;;;;;;8.90;2.00;;;29.40;72.30;;;;;;5015707;28;20044;-69
2021/05/18 12:48:42;;;;;;;7.45;1.73;;;29.20;73.80;;;;;;5022589;28;20036;-69
2021/05/18 12:51:59;;;;;;;8.48;1.77;;;28.90;73.80;;;;;;5021661;28;20045;-68
2021/05/18 12:55:15;;;;;;;6.85;2.13;;;28.60;73.00;;;;;;5009410;28;20037;-69
2021/05/18 12:58:30;;;;;;;10.52;1.95;;;28.50;72.20;;;;;;5022076;28;20496;-68
2021/05/18 13:01:42;;;;;;;8.93;2.05;;;28.40;73.60;;;;;;5015547;28;20048;-69
2021/05/18 13:04:46;;;;;;;9.95;2.03;;;27.70;74.60;;;;;;5013237;28;20061;-68
2021/05/18 13:08:09;;;;;;;10.13;1.90;;;28.20;74.70;;;;;;5012679;28;20074;-69
2021/05/18 13:14:20;;;;;;;9.90;2.08;;;29.20;72.90;;;;;;5010249;28;20259;-68
2021/05/18 13:17:29;;;;;;;12.65;2.20;;;28.50;72.40;;;;;;5018792;28;20049;-68
2021/05/18 13:20:47;;;;;;;10.38;2.20;;;28.20;74.70;;;;;;5013083;28;20040;-69
2021/05/18 13:26:58;;;;;;;10.55;1.90;;;28.00;73.60;;;;;;5009138;28;20049;-68
2021/05/18 13:30:04;;;;;;;6.13;1.90;;;27.80;74.80;;;;;;5011378;28;20044;-69
2021/05/18 13:33:08;;;;;;;6.68;2.03;;;27.70;74.90;;;;;;5012807;28;20033;-70
2021/05/18 13:36:13;;;;;;;11.90;2.22;;;25.90;74.50;;;;;;5012773;28;20240;-69
2021/05/18 13:39:19;;;;;;;11.00;2.17;;;26.00;77.70;;;;;;5014646;28;20121;-69
2021/05/18 13:42:24;;;;;;;7.28;2.00;;;25.40;75.50;;;;;;5022535;28;20044;-69
2021/05/18 13:45:28;;;;;;;8.82;2.17;;;25.10;78.40;;;;;;5030355;28;20511;-69
2021/05/18 13:48:32;;;;;;;9.82;2.35;;;25.20;79.30;;;;;;5015591;28;20057;-69
2021/05/18 13:51:37;;;;;;;9.32;2.22;;;25.90;80.20;;;;;;5015547;28;20049;-69
2021/05/18 13:54:41;;;;;;;8.40;1.98;;;25.00;76.40;;;;;;5031254;28;20052;-69
2021/05/18 13:57:46;;;;;;;10.60;2.30;;;25.60;80.10;;;;;;5020214;28;20032;-69
2021/05/18 14:00:50;;;;;;;15.55;2.45;;;23.80;79.60;;;;;;5030975;28;20048;-69
2021/05/18 14:03:54;;;;;;;10.27;2.05;;;23.40;80.50;;;;;;5024284;28;20049;-68
2021/05/18 14:10:34;;;;;;;9.48;1.90;;;22.60;80.60;;;;;;5013714;28;20044;-68
2021/05/18 14:13:48;;;;;;;12.05;1.85;;;23.10;84.40;;;;;;5023719;28;20064;-68
2021/05/18 14:16:52;;;;;;;12.18;2.00;;;23.90;81.10;;;;;;5019325;28;20053;-69
2021/05/18 14:19:57;;;;;;;8.93;1.77;;;22.40;80.20;;;;;;5031659;28;20041;-68
2021/05/18 14:23:01;;;;;;;13.02;1.88;;;22.10;78.20;;;;;;5019536;28;20044;-69
2021/05/18 14:26:06;;;;;;;9.75;1.77;;;22.20;79.20;;;;;;5032006;28;20040;-68
2021/05/18 14:29:10;;;;;;;8.88;2.13;;;21.60;76.10;;;;;;5032183;28;20040;-68
2021/05/18 14:32:14;;;;;;;7.45;1.40;;;21.80;76.80;;;;;;5026364;28;20049;-68
2021/05/18 14:35:19;;;;;;;7.18;1.55;;;22.00;76.80;;;;;;5031519;28;20484;-68
2021/05/18 14:38:25;;;;;;;6.72;1.83;;;22.60;77.30;;;;;;5018554;28;20052;-67
2021/05/18 14:44:54;;;;;;;6.95;1.65;;;21.90;78.90;;;;;;5032010;28;20076;-68
2021/05/18 14:57:43;;;;;;;6.57;1.38;;;22.20;79.60;;;;;;5031538;28;20040;-68
2021/05/18 15:00:47;;;;;;;6.70;1.50;;;21.80;79.90;;;;;;5031703;28;20164;-69
2021/05/18 15:03:51;;;;;;;9.85;1.80;;;21.90;82.90;;;;;;5031381;28;20068;-70
2021/05/18 15:06:56;;;;;;;4.60;1.27;;;22.20;81.70;;;;;;5031448;28;20507;-69
2021/05/18 15:10:00;;;;;;;6.75;1.27;;;21.60;69.10;;;;;;5027977;28;20056;-68
2021/05/18 15:13:04;;;;;;;7.82;1.17;;;21.40;72.70;;;;;;5011380;28;20515;-68
2021/05/18 15:16:09;;;;;;;7.05;1.75;;;21.70;78.50;;;;;;5011833;28;20052;-69
2021/05/18 15:19:16;;;;;;;8.10;1.40;;;22.00;81.30;;;;;;5011134;28;20518;-69
2021/05/18 15:22:21;;;;;;;8.63;2.15;;;21.60;79.10;;;;;;5010868;28;20045;-70
2021/05/18 15:25:25;;;;;;;6.13;1.75;;;21.50;76.30;;;;;;5010972;28;20417;-70
2021/05/18 15:28:30;;;;;;;7.13;1.42;;;21.40;76.50;;;;;;5011064;28;20057;-71
2021/05/18 15:31:35;;;;;;;5.35;1.35;;;21.60;71.10;;;;;;5011351;28;20484;-69
2021/05/18 15:34:39;;;;;;;5.22;1.20;;;21.60;74.10;;;;;;5010767;28;20048;-69
2021/05/18 15:37:44;;;;;;;7.53;2.03;;;21.90;75.40;;;;;;5011264;28;20041;-69
2021/05/18 15:40:48;;;;;;;5.18;1.48;;;21.90;81.90;;;;;;5010660;28;20392;-69
2021/05/18 15:43:53;;;;;;;9.32;1.70;;;22.00;82.00;;;;;;5010912;28;20056;-69
2021/05/18 15:46:59;;;;;;;8.73;2.08;;;22.00;82.70;;;;;;5011057;28;20053;-69
2021/05/18 15:50:08;;;;;;;9.60;1.50;;;22.00;78.70;;;;;;5010665;28;20064;-69
2021/05/18 15:53:12;;;;;;;9.63;2.20;;;21.50;78.70;;;;;;5009974;28;20408;-68
2021/05/18 15:56:18;;;;;;;6.10;1.17;;;20.90;77.10;;;;;;5010721;28;20056;-69
2021/05/18 15:59:24;;;;;;;3.28;0.95;;;20.60;80.10;;;;;;4997995;28;20044;-69
2021/05/18 16:02:29;;;;;;;3.85;1.13;;;20.30;79.10;;;;;;5010708;28;20516;-68
2021/05/18 16:05:34;;;;;;;8.57;1.27;;;20.00;78.70;;;;;;4998389;28;20057;-69
2021/05/18 16:11:43;;;;;;;5.30;1.08;;;19.80;79.60;;;;;;5010128;28;20073;-68
2021/05/18 16:14:47;;;;;;;5.93;1.35;;;19.70;79.40;;;;;;5010369;28;20041;-68
2021/05/18 16:17:52;;;;;;;5.90;1.10;;;19.70;79.10;;;;;;5010242;28;20504;-68
2021/05/18 16:20:56;;;;;;;7.38;1.73;;;19.70;78.20;;;;;;5020587;28;20685;-68
2021/05/18 16:24:01;;;;;;;6.28;1.92;;;19.90;79.00;;;;;;5027600;28;20049;-68
2021/05/18 16:27:08;;;;;;;8.07;1.65;;;20.30;80.30;;;;;;5016384;28;20053;-69
2021/05/18 16:30:14;;;;;;;5.72;1.80;;;20.50;79.90;;;;;;5011479;28;20506;-70
2021/05/18 16:33:21;;;;;;;7.45;1.55;;;20.90;81.10;;;;;;5003956;28;20045;-68
2021/05/18 16:36:27;;;;;;;7.47;1.33;;;21.10;79.80;;;;;;5012415;28;20507;-69
2021/05/18 16:39:31;;;;;;;9.23;1.60;;;21.10;78.20;;;;;;5016263;28;20495;-68
2021/05/18 16:42:37;;;;;;;11.38;1.73;;;21.00;79.90;;;;;;5025627;28;20392;-67
2021/05/18 16:45:41;;;;;;;6.32;1.60;;;21.10;79.80;;;;;;5019236;28;20520;-68
2021/05/18 16:48:49;;;;;;;10.15;1.70;;;21.10;79.00;;;;;;5028704;28;20048;-69
2021/05/18 16:51:53;;;;;;;6.97;1.15;;;21.10;78.00;;;;;;5028393;28;20048;-68
2021/05/18 16:54:57;;;;;;;4.97;1.20;;;21.10;79.20;;;;;;5027597;28;20512;-69
2021/05/18 16:58:01;;;;;;;3.95;1.38;;;20.90;79.50;;;;;;5028982;28;20040;-68
2021/05/18 17:01:06;;;;;;;8.98;0.93;;;20.90;76.10;;;;;;5010386;28;20060;-68
2021/05/18 17:04:11;;;;;;;4.75;1.15;;;20.60;76.10;;;;;;5016647;28;20040;-69
2021/05/18 17:07:16;;;;;;;5.72;0.90;;;20.50;73.50;;;;;;5016700;28;20037;-68
2021/05/18 17:10:22;;;;;;;5.35;1.10;;;20.20;72.50;;;;;;5026647;28;20424;-68
2021/05/18 17:13:27;;;;;;;5.63;1.00;;;20.10;72.50;;;;;;5027226;28;20496;-69
2021/05/18 17:16:31;;;;;;;6.47;1.60;;;19.90;73.30;;;;;;5026603;28;20049;-69
2021/05/18 17:19:35;;;;;;;5.85;1.27;;;19.60;72.30;;;;;;5031605;28;20040;-68
2021/05/18 17:22:40;;;;;;;7.05;1.42;;;19.50;73.30;;;;;;5020414;28;20055;-68
2021/05/18 17:25:48;;;;;;;6.57;1.10;;;19.30;71.90;;;;;;5029011;28;20048;-69
2021/05/18 17:28:53;;;;;;;6.70;1.20;;;19.30;73.40;;;;;;5023529;28;20056;-70
2021/05/18 17:31:58;;;;;;;6.38;1.00;;;19.10;73.30;;;;;;5020552;28;21263;-68
2021/05/18 17:35:04;;;;;;;6.65;1.73;;;19.10;73.70;;;;;;5020735;28;20057;-69
2021/05/18 17:38:09;;;;;;;5.55;1.10;;;19.10;73.60;;;;;;5025573;28;20052;-69
2021/05/18 17:41:13;;;;;;;5.47;1.08;;;19.10;75.60;;;;;;5030873;28;20395;-68
2021/05/18 17:44:18;;;;;;;5.55;1.10;;;19.00;75.90;;;;;;5030006;28;20048;-69
2021/05/18 17:47:22;;;;;;;4.47;1.15;;;19.00;77.50;;;;;;5029767;28;20044;-69
2021/05/18 17:50:26;;;;;;;7.30;1.60;;;18.80;76.80;;;;;;5021585;28;20045;-69
2021/05/18 17:53:30;;;;;;;8.60;1.60;;;18.60;79.20;;;;;;5026383;28;20053;-69
2021/05/18 17:56:34;;;;;;;7.60;1.55;;;18.30;81.10;;;;;;5030232;28;20037;-69
2021/05/18 17:59:38;;;;;;;10.68;2.13;;;18.10;82.40;;;;;;5017902;28;20044;-69
2021/05/18 18:02:42;;;;;;;9.18;1.63;;;17.90;83.10;;;;;;5023217;28;20033;-69
2021/05/18 18:05:48;;;;;;;10.18;2.15;;;17.80;84.30;;;;;;5018119;28;20049;-69
2021/05/18 18:08:55;;;;;;;9.45;1.88;;;17.70;85.30;;;;;;5009727;28;20068;-69
2021/05/18 18:12:00;;;;;;;11.13;2.33;;;17.50;85.90;;;;;;5029527;28;20049;-68
2021/05/18 18:15:05;;;;;;;7.10;1.63;;;17.40;87.00;;;;;;5029756;28;20044;-69
2021/05/18 18:18:09;;;;;;;10.73;1.98;;;17.40;87.00;;;;;;5012536;28;20053;-69
2021/05/18 18:21:17;;;;;;;12.52;2.42;;;17.30;88.00;;;;;;5015955;28;20045;-68
2021/05/18 18:24:22;;;;;;;14.43;2.88;;;17.20;88.30;;;;;;4993109;28;20532;-68
2021/05/18 18:27:30;;;;;;;14.32;2.13;;;17.10;89.30;;;;;;4997420;28;20057;-68
2021/05/18 18:30:34;;;;;;;10.90;2.42;;;17.00;89.50;;;;;;5010078;28;20069;-68
2021/05/18 18:33:39;;;;;;;6.28;1.70;;;16.90;90.20;;;;;;5009826;28;20052;-70
2021/05/18 18:36:45;;;;;;;6.63;1.40;;;16.80;90.00;;;;;;5010530;28;20543;-69
2021/05/18 18:39:51;;;;;;;12.68;2.20;;;16.70;90.30;;;;;;5011631;28;20117;-69
2021/05/18 18:42:57;;;;;;;12.95;2.92;;;16.70;90.60;;;;;;5010217;28;20048;-69
2021/05/18 18:46:01;;;;;;;15.45;1.92;;;16.70;90.60;;;;;;5014529;28;20401;-68
2021/05/18 18:49:09;;;;;;;13.02;2.50;;;16.60;91.20;;;;;;5013120;28;20107;-68
2021/05/18 18:52:24;;;;;;;9.63;1.92;;;16.40;91.60;;;;;;5016094;28;20396;-68
2021/05/18 18:55:31;;;;;;;15.45;2.80;;;16.30;91.80;;;;;;5022920;28;20045;-69
2021/05/18 18:58:37;;;;;;;12.98;3.20;;;16.20;92.10;;;;;;5010393;28;20036;-69
2021/05/18 19:01:48;;;;;;;13.98;2.55;;;16.10;92.60;;;;;;5017856;28;20049;-68
2021/05/18 19:04:55;;;;;;;13.65;2.55;;;16.00;93.00;;;;;;5022090;28;20064;-69
2021/05/18 19:14:23;;;;;;;12.18;2.33;;;15.80;94.10;;;;;;5019794;28;20052;-69
2021/05/18 19:17:28;;;;;;;17.67;3.42;;;15.80;94.40;;;;;;5020062;28;20041;-68
2021/05/18 19:20:34;;;;;;;14.93;2.63;;;15.70;94.70;;;;;;5019452;28;20053;-69
2021/05/18 19:23:38;;;;;;;12.00;2.75;;;15.70;94.50;;;;;;5018772;28;20049;-68
2021/05/18 19:26:47;;;;;;;21.65;2.63;;;15.60;94.90;;;;;;5024115;28;20056;-69
2021/05/18 19:29:53;;;;;;;15.93;2.90;;;15.60;94.80;;;;;;5020805;28;20048;-69
2021/05/18 19:32:58;;;;;;;15.70;2.53;;;15.60;95.20;;;;;;5017733;28;20400;-69
2021/05/18 19:49:33;;;;;;;13.00;2.80;;;15.00;96.50;;;;;;5007302;28;20041;-69
2021/05/18 19:52:43;;;;;;;16.13;2.60;;;14.90;96.90;;;;;;5006135;28;20503;-69
2021/05/18 19:55:57;;;;;;;16.67;2.97;;;14.80;97.10;;;;;;5019262;28;20052;-68
2021/05/18 20:22:32;;;;;;;;;;;14.70;98.90;;;;;;5008631;28;20036;-69
2021/05/18 20:25:37;;;;;;;14.20;2.47;;;14.70;99.10;;;;;;5014695;28;20248;-68
2021/05/18 20:28:42;;;;;;;14.82;2.33;;;14.80;99.10;;;;;;5018280;28;20056;-69
2021/05/18 20:31:47;;;;;;;20.50;2.97;;;14.80;99.00;;;;;;5015048;28;20044;-68
2021/05/18 20:41:27;;;;;;;9.48;2.70;;;15.00;99.20;;;;;;5014698;28;20048;-69
2021/05/18 20:44:31;;;;;;;15.77;3.03;;;15.20;99.30;;;;;;5013665;28;20060;-68
2021/05/18 20:47:35;;;;;;;17.23;2.85;;;15.10;99.60;;;;;;5033546;28;20048;-69
2021/05/18 20:50:41;;;;;;;16.77;3.10;;;14.90;99.90;;;;;;5033752;28;20499;-69
2021/05/18 20:53:46;;;;;;;20.95;3.75;;;14.80;99.90;;;;;;5031673;28;20049;-69
2021/05/18 20:56:51;;;;;;;15.18;2.63;;;14.70;99.90;;;;;;5002172;28;20049;-68
2021/05/18 20:59:56;;;;;;;19.67;3.58;;;14.80;99.90;;;;;;5013830;28;20056;-70
2021/05/18 21:03:03;;;;;;;18.30;3.08;;;14.80;99.90;;;;;;5013294;28;20041;-70
2021/05/18 21:06:11;;;;;;;24.23;3.15;;;14.90;99.90;;;;;;5013697;28;20045;-68
2021/05/18 21:15:59;;;;;;;17.23;2.85;;;14.90;99.90;;;;;;5013653;28;20049;-68
2021/05/18 21:19:05;;;;;;;14.65;3.05;;;15.00;99.90;;;;;;5013176;28;20033;-69
2021/05/18 21:22:10;;;;;;;15.75;3.22;;;15.10;99.90;;;;;;5013387;28;20041;-69
2021/05/18 21:25:15;;;;;;;8.20;2.47;;;15.10;99.90;;;;;;5000633;28;20416;-70
2021/05/18 21:28:22;;;;;;;16.63;3.15;;;15.10;99.90;;;;;;5013663;28;20500;-69
2021/05/18 21:31:26;;;;;;;18.77;3.53;;;15.10;99.90;;;;;;5013647;28;20057;-68
2021/05/18 21:34:32;;;;;;;16.25;3.15;;;15.00;99.90;;;;;;5013032;28;20041;-67
2021/05/18 21:37:37;;;;;;;17.55;2.97;;;14.90;99.90;;;;;;5013491;28;20424;-69
2021/05/18 21:40:47;;;;;;;13.38;3.72;;;14.70;99.90;;;;;;5011906;28;20044;-69
2021/05/18 21:43:52;;;;;;;14.83;3.83;;;14.50;99.90;;;;;;5012984;28;20527;-69
2021/05/18 21:46:57;;;;;;;20.60;4.35;;;14.20;99.90;;;;;;5013323;28;20052;-69
2021/05/18 21:50:02;;;;;;;21.10;4.18;;;14.00;99.90;;;;;;5012643;28;20048;-69